Time,TemperatureF,DewpointF,PressureIn,WindDirection,WindDirectionDegrees,WindSpeedMPH,WindSpeedGustMPH,Humidity,HourlyPrecipIn,Conditions,Clouds,dailyrainin,SoftwareType,DateUTC
2013-04-08 00:04:00,33.6,29.4,29.70,ESE,113,5.5,9.3,85,0.00,,,0.00,WUHU216HW,2013-04-08 05:04:00,
2013-04-08 00:09:00,33.6,29.4,29.70,ESE,113,7.3,9.3,85,0.00,,,0.00,WUHU216HW,2013-04-08 05:09:00,
2013-04-08 00:14:00,33.6,29.4,29.70,ESE,103,8.3,9.8,85,0.00,,,0.00,WUHU216HW,2013-04-08 05:14:00,
2013-04-08 00:19:00,33.6,29.4,29.70,ESE,104,4.6,9.8,85,0.00,,,0.00,WUHU216HW,2013-04-08 05:19:00,
2013-04-08 00:24:00,33.6,29.4,29.69,SE,126,4.6,6.4,85,0.00,,,0.00,WUHU216HW,2013-04-08 05:24:00,
2013-04-08 00:29:00,33.6,29.4,29.70,ESE,113,3.5,6.2,85,0.00,,,0.00,WUHU216HW,2013-04-08 05:29:00,
2013-04-08 00:34:00,33.6,29.4,29.70,East,90,0.0,6.2,85,0.00,,,0.00,WUHU216HW,2013-04-08 05:34:00,
2013-04-08 00:40:00,33.6,29.4,29.69,SE,135,5.3,5.3,85,0.00,,,0.00,WUHU216HW,2013-04-08 05:40:00,
2013-04-08 00:45:00,33.4,29.0,29.69,ESE,113,4.6,5.3,84,0.00,,,0.00,WUHU216HW,2013-04-08 05:45:00,
2013-04-08 00:50:00,33.4,29.3,29.68,ESE,113,3.8,4.6,85,0.00,,,0.00,WUHU216HW,2013-04-08 05:50:00,
2013-04-08 00:55:00,33.4,29.3,29.68,East,90,4.0,4.0,85,0.00,,,0.00,WUHU216HW,2013-04-08 05:55:00,
2013-04-08 01:00:00,33.2,29.1,29.67,ESE,113,4.9,4.9,85,0.00,,,0.00,WUHU216HW,2013-04-08 06:00:00,
2013-04-08 01:05:00,33.4,29.3,29.67,ESE,113,4.6,5.3,85,0.00,,,0.00,WUHU216HW,2013-04-08 06:05:00,
2013-04-08 01:10:00,33.2,29.1,29.67,SE,135,3.5,6.0,85,0.00,,,0.00,WUHU216HW,2013-04-08 06:10:00,
2013-04-08 01:15:00,33.2,29.1,29.68,ESE,113,2.9,6.0,85,0.00,,,0.00,WUHU216HW,2013-04-08 06:15:00,
2013-04-08 01:20:00,33.2,29.1,29.68,SE,135,5.1,5.1,85,0.00,,,0.00,WUHU216HW,2013-04-08 06:20:00,
2013-04-08 01:25:00,33.4,29.3,29.67,SE,135,6.0,8.7,85,0.00,,,0.00,WUHU216HW,2013-04-08 06:25:00,
2013-04-08 01:30:00,33.4,29.3,29.67,ESE,113,4.0,8.7,85,0.00,,,0.00,WUHU216HW,2013-04-08 06:30:00,
2013-04-08 01:35:00,33.4,29.3,29.67,ESE,113,2.4,5.1,85,0.00,,,0.00,WUHU216HW,2013-04-08 06:35:00,
2013-04-08 01:40:00,33.4,29.3,29.67,East,98,3.8,5.5,85,0.00,,,0.00,WUHU216HW,2013-04-08 06:40:00,
2013-04-08 01:46:00,33.4,29.3,29.67,East,90,3.4,6.0,85,0.00,,,0.00,WUHU216HW,2013-04-08 06:46:00,
2013-04-08 01:51:00,33.6,29.4,29.66,ESE,102,4.2,6.0,85,0.00,,,0.00,WUHU216HW,2013-04-08 06:51:00,
2013-04-08 01:56:00,33.6,29.4,29.66,ESE,113,4.9,6.2,85,0.00,,,0.00,WUHU216HW,2013-04-08 06:56:00,
2013-04-08 02:01:00,33.6,29.4,29.66,SE,135,3.5,6.2,85,0.00,,,0.00,WUHU216HW,2013-04-08 07:01:00,
2013-04-08 02:09:00,33.6,29.4,29.66,ESE,113,4.4,4.4,85,0.00,,,0.00,WUHU216HW,2013-04-08 07:09:00,
2013-04-08 02:14:00,34.3,30.2,29.66,East,90,4.2,4.6,85,0.00,,,0.00,WUHU216HW,2013-04-08 07:14:00,
2013-04-08 02:19:00,34.3,29.9,29.65,SE,135,1.5,4.9,84,0.00,,,0.00,WUHU216HW,2013-04-08 07:19:00,
2013-04-08 02:25:00,34.5,30.0,29.65,SE,135,3.3,5.1,84,0.00,,,0.00,WUHU216HW,2013-04-08 07:25:00,
2013-04-08 02:30:00,34.7,30.2,29.66,ESE,113,4.0,5.1,84,0.00,,,0.00,WUHU216HW,2013-04-08 07:30:00,
2013-04-08 02:35:00,34.8,30.4,29.65,SE,135,1.5,4.0,84,0.00,,,0.00,WUHU216HW,2013-04-08 07:35:00,
2013-04-08 02:40:00,34.8,30.4,29.65,ESE,113,0.0,2.9,84,0.00,,,0.00,WUHU216HW,2013-04-08 07:40:00,
2013-04-08 02:45:00,35.2,30.5,29.64,SE,135,6.2,6.2,83,0.00,,,0.00,WUHU216HW,2013-04-08 07:45:00,
2013-04-08 02:50:00,35.2,30.5,29.64,ESE,113,5.3,6.2,83,0.00,,,0.00,WUHU216HW,2013-04-08 07:50:00,
2013-04-08 02:55:00,35.4,30.7,29.63,East,90,0.0,5.3,83,0.00,,,0.00,WUHU216HW,2013-04-08 07:55:00,
2013-04-08 03:00:00,35.4,30.7,29.63,SE,135,5.3,5.3,83,0.00,,,0.00,WUHU216HW,2013-04-08 08:00:00,
2013-04-08 03:05:00,35.7,31.0,29.62,East,90,5.4,6.7,83,0.00,,,0.00,WUHU216HW,2013-04-08 08:05:00,
2013-04-08 03:10:00,35.7,31.0,29.62,East,90,7.1,7.3,83,0.00,,,0.00,WUHU216HW,2013-04-08 08:10:00,
2013-04-08 03:16:00,35.7,30.7,29.62,ESE,113,5.6,7.3,82,0.00,,,0.00,WUHU216HW,2013-04-08 08:16:00,
2013-04-08 03:21:00,35.7,30.7,29.62,SE,135,6.4,7.1,82,0.00,,,0.00,WUHU216HW,2013-04-08 08:21:00,
2013-04-08 03:26:00,35.7,30.7,29.62,East,90,6.2,7.8,82,0.00,,,0.00,WUHU216HW,2013-04-08 08:26:00,
2013-04-08 03:31:00,35.7,30.7,29.61,East,100,3.8,7.8,82,0.00,,,0.00,WUHU216HW,2013-04-08 08:31:00,
2013-04-08 03:36:00,35.7,30.7,29.62,SE,135,1.1,5.3,82,0.00,,,0.00,WUHU216HW,2013-04-08 08:36:00,
2013-04-08 03:42:00,35.9,30.9,29.61,ESE,109,6.2,7.1,82,0.00,,,0.00,WUHU216HW,2013-04-08 08:42:00,
2013-04-08 03:47:00,35.9,30.9,29.61,ESE,102,4.9,7.1,82,0.00,,,0.00,WUHU216HW,2013-04-08 08:47:00,
2013-04-08 03:52:00,36.1,31.1,29.61,ESE,113,4.4,6.7,82,0.00,,,0.00,WUHU216HW,2013-04-08 08:52:00,
2013-04-08 03:57:00,36.1,31.1,29.61,ESE,113,3.8,6.2,82,0.00,,,0.00,WUHU216HW,2013-04-08 08:57:00,
2013-04-08 04:02:00,36.1,31.1,29.60,ESE,113,4.0,6.4,82,0.00,,,0.00,WUHU216HW,2013-04-08 09:02:00,
2013-04-08 04:08:00,36.1,31.1,29.60,SE,135,5.1,6.4,82,0.00,,,0.00,WUHU216HW,2013-04-08 09:08:00,
2013-04-08 04:13:00,36.1,31.1,29.60,ESE,113,3.8,7.3,82,0.00,,,0.00,WUHU216HW,2013-04-08 09:13:00,
2013-04-08 04:18:00,36.1,31.1,29.60,East,99,5.2,7.3,82,0.00,,,0.00,WUHU216HW,2013-04-08 09:18:00,
2013-04-08 04:23:00,36.1,31.1,29.59,ESE,106,1.8,7.3,82,0.00,,,0.00,WUHU216HW,2013-04-08 09:23:00,
2013-04-08 04:28:00,36.1,31.1,29.59,East,91,3.0,7.3,82,0.00,,,0.00,WUHU216HW,2013-04-08 09:28:00,
2013-04-08 04:33:00,36.1,31.1,29.60,East,90,2.5,6.2,82,0.00,,,0.00,WUHU216HW,2013-04-08 09:33:00,
2013-04-08 04:38:00,36.1,31.1,29.59,East,90,3.3,6.2,82,0.00,,,0.00,WUHU216HW,2013-04-08 09:38:00,
2013-04-08 04:43:00,36.1,31.1,29.59,East,95,5.2,6.4,82,0.00,,,0.00,WUHU216HW,2013-04-08 09:43:00,
2013-04-08 04:48:00,36.3,31.3,29.58,East,90,5.5,6.4,82,0.00,,,0.00,WUHU216HW,2013-04-08 09:48:00,
2013-04-08 04:53:00,36.3,31.3,29.58,ENE,68,5.8,7.1,82,0.00,,,0.00,WUHU216HW,2013-04-08 09:53:00,
2013-04-08 04:58:00,36.3,31.3,29.58,East,90,6.1,7.1,82,0.00,,,0.00,WUHU216HW,2013-04-08 09:58:00,
2013-04-08 05:03:00,36.3,31.3,29.58,East,90,2.0,6.9,82,0.00,,,0.00,WUHU216HW,2013-04-08 10:03:00,
2013-04-08 05:08:00,36.1,31.1,29.58,East,90,3.5,4.4,82,0.00,,,0.00,WUHU216HW,2013-04-08 10:08:00,
2013-04-08 05:13:00,36.1,31.1,29.57,East,90,2.4,3.5,82,0.00,,,0.00,WUHU216HW,2013-04-08 10:13:00,
2013-04-08 05:18:00,36.1,31.1,29.57,East,90,4.9,7.1,82,0.00,,,0.00,WUHU216HW,2013-04-08 10:18:00,
2013-04-08 05:24:00,36.3,31.3,29.57,East,90,0.2,5.1,82,0.00,,,0.00,WUHU216HW,2013-04-08 10:24:00,
2013-04-08 05:29:00,36.3,31.3,29.57,ENE,68,3.3,3.8,82,0.00,,,0.00,WUHU216HW,2013-04-08 10:29:00,
2013-04-08 05:34:00,36.3,31.3,29.57,ENE,68,0.6,3.8,82,0.00,,,0.00,WUHU216HW,2013-04-08 10:34:00,
2013-04-08 05:39:00,36.3,31.3,29.57,East,90,4.0,4.0,82,0.00,,,0.00,WUHU216HW,2013-04-08 10:39:00,
2013-04-08 05:44:00,36.5,31.4,29.56,East,90,3.5,5.5,82,0.00,,,0.00,WUHU216HW,2013-04-08 10:44:00,
2013-04-08 05:49:00,36.6,31.6,29.56,East,79,4.8,5.5,82,0.00,,,0.00,WUHU216HW,2013-04-08 10:49:00,
2013-04-08 05:54:00,36.6,31.6,29.56,East,83,1.3,6.9,82,0.00,,,0.00,WUHU216HW,2013-04-08 10:54:00,
2013-04-08 05:59:00,36.6,31.6,29.55,East,90,5.0,6.9,82,0.00,,,0.00,WUHU216HW,2013-04-08 10:59:00,
2013-04-08 06:04:00,37.0,32.0,29.56,East,90,2.9,6.2,82,0.00,,,0.00,WUHU216HW,2013-04-08 11:04:00,
2013-04-08 06:09:00,37.0,32.0,29.56,East,90,4.4,4.4,82,0.00,,,0.00,WUHU216HW,2013-04-08 11:09:00,
2013-04-08 06:15:00,37.0,32.0,29.56,East,90,3.3,4.9,82,0.00,,,0.00,WUHU216HW,2013-04-08 11:15:00,
2013-04-08 06:20:00,37.0,32.0,29.56,East,90,2.9,4.9,82,0.00,,,0.00,WUHU216HW,2013-04-08 11:20:00,
2013-04-08 06:25:00,37.0,32.0,29.55,East,90,4.4,4.4,82,0.00,,,0.00,WUHU216HW,2013-04-08 11:25:00,
2013-04-08 06:30:00,37.2,32.2,29.55,ENE,68,4.2,5.5,82,0.00,,,0.00,WUHU216HW,2013-04-08 11:30:00,
2013-04-08 06:35:00,37.2,32.5,29.55,ENE,77,6.2,6.9,83,0.00,,,0.00,WUHU216HW,2013-04-08 11:35:00,
2013-04-08 06:40:00,37.2,32.5,29.54,East,79,5.8,7.3,83,0.00,,,0.00,WUHU216HW,2013-04-08 11:40:00,
2013-04-08 06:45:00,37.5,32.8,29.54,ENE,68,6.9,7.3,83,0.00,,,0.00,WUHU216HW,2013-04-08 11:45:00,
2013-04-08 06:50:00,37.7,32.8,29.54,East,90,7.3,7.3,83,0.00,,,0.00,WUHU216HW,2013-04-08 11:50:00,
2013-04-08 06:55:00,37.9,33.2,29.54,East,79,8.1,8.2,83,0.00,,,0.00,WUHU216HW,2013-04-08 11:55:00,
2013-04-08 07:00:00,37.9,33.2,29.54,East,90,1.7,8.2,83,0.00,,,0.00,WUHU216HW,2013-04-08 12:00:00,
2013-04-08 07:05:00,38.3,33.2,29.53,ENE,61,4.3,6.7,82,0.00,,,0.00,WUHU216HW,2013-04-08 12:05:00,
2013-04-08 07:10:00,38.4,33.4,29.53,East,90,6.7,6.9,82,0.00,,,0.00,WUHU216HW,2013-04-08 12:10:00,
2013-04-08 07:15:00,38.8,33.8,29.53,East,90,7.6,7.6,82,0.00,,,0.00,WUHU216HW,2013-04-08 12:15:00,
2013-04-08 07:20:00,38.8,33.8,29.53,ENE,68,9.6,9.6,82,0.00,,,0.00,WUHU216HW,2013-04-08 12:20:00,
2013-04-08 07:26:00,39.0,34.0,29.52,ENE,76,7.9,9.8,82,0.00,,,0.00,WUHU216HW,2013-04-08 12:26:00,
2013-04-08 07:31:00,39.3,34.1,29.52,ENE,68,8.0,9.8,82,0.00,,,0.00,WUHU216HW,2013-04-08 12:31:00,
2013-04-08 07:36:00,39.3,34.3,29.52,ENE,68,8.7,10.0,82,0.00,,,0.00,WUHU216HW,2013-04-08 12:36:00,
2013-04-08 07:41:00,39.5,34.5,29.54,ESE,113,0.0,10.0,82,0.00,,,0.00,WUHU216HW,2013-04-08 12:41:00,
2013-04-08 07:47:00,39.5,34.5,29.54,East,90,2.9,5.1,82,0.00,,,0.00,WUHU216HW,2013-04-08 12:47:00,
2013-04-08 07:52:00,39.5,34.5,29.54,ESE,113,0.0,2.9,82,0.00,,,0.00,WUHU216HW,2013-04-08 12:52:00,
2013-04-08 07:57:00,39.5,34.3,29.54,ENE,68,0.0,0.0,82,0.00,,,0.00,WUHU216HW,2013-04-08 12:57:00,
2013-04-08 08:02:00,39.5,34.5,29.54,ENE,68,0.0,0.0,82,0.00,,,0.00,WUHU216HW,2013-04-08 13:02:00,
2013-04-08 08:07:00,39.5,34.5,29.54,East,90,1.1,1.3,82,0.00,,,0.00,WUHU216HW,2013-04-08 13:07:00,
2013-04-08 08:12:00,39.3,34.3,29.54,East,90,0.0,1.3,82,0.00,,,0.00,WUHU216HW,2013-04-08 13:12:00,
2013-04-08 08:17:00,39.5,34.5,29.54,ESE,113,0.0,0.0,82,0.00,,,0.00,WUHU216HW,2013-04-08 13:17:00,
2013-04-08 08:22:00,39.5,34.3,29.55,East,90,0.0,0.0,82,0.00,,,0.00,WUHU216HW,2013-04-08 13:22:00,
2013-04-08 08:27:00,39.3,34.3,29.55,East,90,0.0,0.8,82,0.02,,,0.02,WUHU216HW,2013-04-08 13:27:00,
2013-04-08 08:33:00,39.3,34.6,29.55,ESE,113,0.0,2.9,83,0.02,,,0.02,WUHU216HW,2013-04-08 13:33:00,
2013-04-08 08:38:00,39.3,34.6,29.55,East,90,0.0,2.9,83,0.04,,,0.04,WUHU216HW,2013-04-08 13:38:00,
2013-04-08 08:43:00,39.0,34.3,29.55,East,90,0.0,0.0,83,0.04,,,0.04,WUHU216HW,2013-04-08 13:43:00,
2013-04-08 08:48:00,39.0,34.5,29.54,ENE,68,0.0,0.0,84,0.06,,,0.06,WUHU216HW,2013-04-08 13:48:00,
2013-04-08 08:53:00,39.0,34.5,29.54,NE,45,0.0,0.0,84,0.06,,,0.06,WUHU216HW,2013-04-08 13:53:00,
2013-04-08 08:58:00,39.0,34.5,29.54,ENE,68,0.0,0.0,85,0.08,,,0.08,WUHU216HW,2013-04-08 13:58:00,
2013-04-08 09:03:00,39.0,34.8,29.55,NNE,23,0.0,0.0,85,0.08,,,0.08,WUHU216HW,2013-04-08 14:03:00,
2013-04-08 09:08:00,39.0,34.8,29.54,NNE,23,0.0,0.0,85,0.08,,,0.08,WUHU216HW,2013-04-08 14:08:00,
2013-04-08 09:13:00,38.8,34.7,29.54,NNE,23,0.0,0.0,85,0.10,,,0.10,WUHU216HW,2013-04-08 14:13:00,
2013-04-08 09:18:00,38.8,34.7,29.54,North,0,0.0,0.0,85,0.10,,,0.10,WUHU216HW,2013-04-08 14:18:00,
2013-04-08 09:23:00,38.4,34.8,29.54,NE,45,0.0,0.0,85,0.12,,,0.12,WUHU216HW,2013-04-08 14:23:00,
2013-04-08 09:28:00,38.4,34.6,29.53,NNE,23,0.0,0.0,86,0.10,,,0.12,WUHU216HW,2013-04-08 14:28:00,
2013-04-08 09:33:00,38.4,34.6,29.53,NNE,23,0.0,0.0,86,0.12,,,0.14,WUHU216HW,2013-04-08 14:33:00,
2013-04-08 09:38:00,38.3,34.7,29.53,NE,45,0.0,1.7,87,0.10,,,0.14,WUHU216HW,2013-04-08 14:38:00,
2013-04-08 09:43:00,38.1,34.5,29.53,North,0,0.0,0.0,87,0.08,,,0.14,WUHU216HW,2013-04-08 14:43:00,
2013-04-08 09:49:00,37.9,34.3,29.53,NNE,23,0.0,0.8,87,0.10,,,0.16,WUHU216HW,2013-04-08 14:49:00,
2013-04-08 09:54:00,37.9,34.3,29.52,NNE,23,0.0,2.6,87,0.10,,,0.16,WUHU216HW,2013-04-08 14:54:00,
2013-04-08 09:59:00,37.9,34.6,29.52,NNE,23,0.0,3.1,88,0.10,,,0.18,WUHU216HW,2013-04-08 14:59:00,
2013-04-08 10:04:00,37.9,34.6,29.52,North,0,3.1,3.1,88,0.10,,,0.18,WUHU216HW,2013-04-08 15:04:00,
2013-04-08 10:10:00,37.9,34.6,29.52,North,0,0.0,3.1,88,0.10,,,0.18,WUHU216HW,2013-04-08 15:10:00,
2013-04-08 10:15:00,37.9,34.9,29.52,NNE,23,5.1,5.1,89,0.10,,,0.20,WUHU216HW,2013-04-08 15:15:00,
2013-04-08 10:20:00,37.9,34.9,29.52,NNE,23,0.0,5.1,89,0.08,,,0.20,WUHU216HW,2013-04-08 15:20:00,
2013-04-08 10:25:00,38.1,35.1,29.52,ENE,68,2.0,2.6,89,0.10,,,0.22,WUHU216HW,2013-04-08 15:25:00,
2013-04-08 10:30:00,38.1,35.1,29.52,NNE,24,2.8,5.3,89,0.10,,,0.22,WUHU216HW,2013-04-08 15:30:00,
2013-04-08 10:35:00,38.1,35.4,29.51,ENE,68,2.6,5.3,90,0.08,,,0.22,WUHU216HW,2013-04-08 15:35:00,
2013-04-08 10:40:00,38.3,35.6,29.51,NE,45,4.6,4.6,90,0.08,,,0.22,WUHU216HW,2013-04-08 15:40:00,
2013-04-08 10:45:00,38.3,35.6,29.51,NNE,23,2.9,5.1,90,0.08,,,0.24,WUHU216HW,2013-04-08 15:45:00,
2013-04-08 10:50:00,38.4,35.7,29.51,NNE,23,0.0,5.1,90,0.08,,,0.24,WUHU216HW,2013-04-08 15:50:00,
2013-04-08 10:55:00,38.8,36.4,29.50,NE,45,2.6,5.8,91,0.08,,,0.24,WUHU216HW,2013-04-08 15:55:00,
2013-04-08 11:00:00,39.0,36.5,29.50,NE,37,5.1,7.8,91,0.06,,,0.24,WUHU216HW,2013-04-08 16:00:00,
2013-04-08 11:05:00,39.3,37.2,29.49,NE,45,8.2,8.2,92,0.08,,,0.26,WUHU216HW,2013-04-08 16:05:00,
2013-04-08 11:10:00,39.3,37.2,29.49,NE,45,9.8,9.8,92,0.08,,,0.26,WUHU216HW,2013-04-08 16:10:00,
2013-04-08 11:15:00,39.9,37.7,29.49,ENE,59,8.3,9.8,92,0.06,,,0.26,WUHU216HW,2013-04-08 16:15:00,
2013-04-08 11:20:00,40.2,38.1,29.48,ENE,72,8.4,11.8,92,0.06,,,0.26,WUHU216HW,2013-04-08 16:20:00,
2013-04-08 11:26:00,40.6,38.4,29.48,East,90,7.1,11.8,92,0.04,,,0.26,WUHU216HW,2013-04-08 16:26:00,
2013-04-08 11:30:00,40.6,38.4,29.47,NE,45,10.7,10.7,92,0.04,,,0.26,WUHU216HW,2013-04-08 16:30:00,
2013-04-08 11:36:00,40.8,38.6,29.47,East,81,4.9,12.7,92,0.04,,,0.26,WUHU216HW,2013-04-08 16:36:00,
2013-04-08 11:41:00,41.1,39.0,29.50,ENE,68,6.0,12.7,92,0.02,,,0.26,WUHU216HW,2013-04-08 16:41:00,
2013-04-08 11:46:00,41.5,39.3,29.53,East,90,2.0,7.6,92,0.02,,,0.26,WUHU216HW,2013-04-08 16:46:00,
2013-04-08 11:51:00,41.7,39.2,29.54,North,0,0.0,7.6,91,0.02,,,0.26,WUHU216HW,2013-04-08 16:51:00,
2013-04-08 11:56:00,41.3,38.9,29.54,NE,45,1.3,4.9,91,0.02,,,0.26,WUHU216HW,2013-04-08 16:56:00,
2013-04-08 12:01:00,41.1,38.4,29.54,NE,45,0.0,4.9,90,0.02,,,0.26,WUHU216HW,2013-04-08 17:01:00,
2013-04-08 12:06:00,41.3,38.6,29.54,NNE,23,0.0,2.0,90,0.00,,,0.26,WUHU216HW,2013-04-08 17:06:00,
2013-04-08 12:11:00,41.5,38.8,29.54,NNE,23,0.0,0.0,90,0.00,,,0.26,WUHU216HW,2013-04-08 17:11:00,
2013-04-08 12:17:00,41.7,39.0,29.54,NNE,23,3.1,3.1,90,0.00,,,0.26,WUHU216HW,2013-04-08 17:17:00,
2013-04-08 12:22:00,42.0,39.3,29.55,North,0,0.0,3.1,90,0.00,,,0.26,WUHU216HW,2013-04-08 17:22:00,
2013-04-08 12:27:00,42.4,39.4,29.55,East,90,0.0,5.3,89,0.00,,,0.26,WUHU216HW,2013-04-08 17:27:00,
2013-04-08 12:32:00,42.4,39.4,29.54,North,0,0.0,5.5,89,0.00,,,0.26,WUHU216HW,2013-04-08 17:32:00,
2013-04-08 12:37:00,42.6,39.6,29.54,NNE,23,0.0,5.5,89,0.00,,,0.26,WUHU216HW,2013-04-08 17:37:00,
2013-04-08 12:42:00,42.8,39.7,29.55,NNE,23,0.0,2.4,89,0.00,,,0.26,WUHU216HW,2013-04-08 17:42:00,
2013-04-08 12:47:00,42.9,39.9,29.55,NE,45,0.0,2.0,89,0.00,,,0.26,WUHU216HW,2013-04-08 17:47:00,
2013-04-08 12:52:00,43.3,40.3,29.56,NNE,23,6.4,6.4,89,0.00,,,0.26,WUHU216HW,2013-04-08 17:52:00,
2013-04-08 12:57:00,43.1,39.8,29.55,NE,45,0.0,6.4,88,0.00,,,0.26,WUHU216HW,2013-04-08 17:57:00,
2013-04-08 13:02:00,43.5,40.2,29.55,NE,45,0.0,6.4,88,0.00,,,0.26,WUHU216HW,2013-04-08 18:02:00,
2013-04-08 13:07:00,43.8,40.5,29.56,NNE,23,0.0,2.0,88,0.00,,,0.26,WUHU216HW,2013-04-08 18:07:00,
2013-04-08 13:13:00,44.2,40.6,29.56,NNE,23,0.0,4.0,87,0.00,,,0.26,WUHU216HW,2013-04-08 18:13:00,
2013-04-08 13:18:00,44.2,40.6,29.56,NE,45,0.0,4.0,87,0.00,,,0.26,WUHU216HW,2013-04-08 18:18:00,
2013-04-08 13:23:00,44.2,40.3,29.56,NNE,23,0.0,2.2,86,0.00,,,0.26,WUHU216HW,2013-04-08 18:23:00,
2013-04-08 13:28:00,44.2,40.3,29.56,NE,45,5.5,5.5,86,0.00,,,0.26,WUHU216HW,2013-04-08 18:28:00,
2013-04-08 13:33:00,44.4,40.4,29.57,NNE,23,3.3,5.5,86,0.00,,,0.26,WUHU216HW,2013-04-08 18:33:00,
2013-04-08 13:38:00,44.6,40.3,29.57,NNE,23,0.0,3.3,85,0.00,,,0.26,WUHU216HW,2013-04-08 18:38:00,
2013-04-08 13:43:00,44.7,40.5,29.56,ENE,68,0.0,4.9,85,0.00,,,0.26,WUHU216HW,2013-04-08 18:43:00,
2013-04-08 13:48:00,45.1,40.9,29.57,NE,45,0.0,4.9,85,0.00,,,0.26,WUHU216HW,2013-04-08 18:48:00,
2013-04-08 13:53:00,45.3,41.0,29.58,North,0,0.0,0.0,85,0.00,,,0.26,WUHU216HW,2013-04-08 18:53:00,
2013-04-08 13:58:00,45.6,41.1,29.58,NNE,23,0.0,0.0,84,0.00,,,0.26,WUHU216HW,2013-04-08 18:58:00,
2013-04-08 14:03:00,46.9,42.3,29.58,NNE,23,7.1,7.1,84,0.00,,,0.26,WUHU216HW,2013-04-08 19:03:00,
2013-04-08 14:08:00,46.9,42.0,29.58,North,0,1.1,7.1,83,0.00,,,0.26,WUHU216HW,2013-04-08 19:08:00,
2013-04-08 14:13:00,46.5,41.4,29.57,ENE,68,0.0,6.2,82,0.00,,,0.26,WUHU216HW,2013-04-08 19:13:00,
2013-04-08 14:19:00,46.2,40.7,29.58,NE,45,0.0,2.9,81,0.00,,,0.26,WUHU216HW,2013-04-08 19:19:00,
2013-04-08 14:24:00,45.8,40.7,29.57,NE,45,3.3,3.3,82,0.00,,,0.26,WUHU216HW,2013-04-08 19:24:00,
2013-04-08 14:29:00,46.0,40.8,29.57,East,90,0.0,3.3,82,0.00,,,0.26,WUHU216HW,2013-04-08 19:29:00,
2013-04-08 14:34:00,46.4,41.0,29.57,NE,45,2.0,2.0,82,0.00,,,0.26,WUHU216HW,2013-04-08 19:34:00,
2013-04-08 14:39:00,46.5,41.1,29.58,NE,45,0.0,2.0,81,0.00,,,0.26,WUHU216HW,2013-04-08 19:39:00,
2013-04-08 14:45:00,46.2,40.7,29.57,ENE,68,4.0,8.0,81,0.00,,,0.26,WUHU216HW,2013-04-08 19:45:00,
2013-04-08 14:50:00,46.5,41.1,29.58,NE,45,0.0,8.0,81,0.00,,,0.26,WUHU216HW,2013-04-08 19:50:00,
2013-04-08 14:55:00,46.9,41.1,29.58,NE,45,0.0,2.9,80,0.00,,,0.26,WUHU216HW,2013-04-08 19:55:00,
2013-04-08 15:00:00,46.9,41.1,29.58,ENE,68,3.1,3.1,80,0.00,,,0.26,WUHU216HW,2013-04-08 20:00:00,
2013-04-08 15:05:00,46.5,40.8,29.58,NE,45,0.0,3.1,80,0.00,,,0.26,WUHU216HW,2013-04-08 20:05:00,
2013-04-08 15:10:00,46.2,40.4,29.58,ENE,68,0.0,0.6,80,0.00,,,0.26,WUHU216HW,2013-04-08 20:10:00,
2013-04-08 15:15:00,46.2,40.4,29.58,NE,45,0.0,0.0,80,0.00,,,0.26,WUHU216HW,2013-04-08 20:15:00,
2013-04-08 15:20:00,46.0,40.2,29.58,NE,45,0.0,0.0,80,0.00,,,0.26,WUHU216HW,2013-04-08 20:20:00,
2013-04-08 15:25:00,45.6,39.9,29.59,NNE,23,0.0,0.0,80,0.00,,,0.26,WUHU216HW,2013-04-08 20:25:00,
2013-04-08 15:30:00,45.6,39.9,29.59,NNE,23,2.4,2.4,80,0.00,,,0.26,WUHU216HW,2013-04-08 20:30:00,
2013-04-08 15:35:00,45.1,39.3,29.60,NNE,23,0.0,2.9,80,0.00,,,0.26,WUHU216HW,2013-04-08 20:35:00,
2013-04-08 15:40:00,45.1,39.6,29.60,NE,45,6.4,6.4,81,0.00,,,0.26,WUHU216HW,2013-04-08 20:40:00,
2013-04-08 15:45:00,44.7,39.3,29.60,NNE,23,0.0,6.4,81,0.00,,,0.26,WUHU216HW,2013-04-08 20:45:00,
2013-04-08 15:50:00,44.4,38.9,29.60,East,90,0.0,1.7,81,0.00,,,0.26,WUHU216HW,2013-04-08 20:50:00,
2013-04-08 15:55:00,44.4,38.9,29.61,NNE,23,2.2,2.2,81,0.00,,,0.26,WUHU216HW,2013-04-08 20:55:00,
2013-04-08 16:00:00,44.2,39.0,29.61,NNE,23,0.0,2.2,82,0.00,,,0.26,WUHU216HW,2013-04-08 21:00:00,
2013-04-08 16:05:00,44.4,39.2,29.61,NNE,23,0.0,1.7,82,0.00,,,0.26,WUHU216HW,2013-04-08 21:05:00,
2013-04-08 16:11:00,44.4,39.2,29.61,ENE,68,0.0,0.0,82,0.00,,,0.26,WUHU216HW,2013-04-08 21:11:00,
2013-04-08 16:16:00,44.6,39.4,29.61,NNE,23,0.0,0.0,82,0.00,,,0.26,WUHU216HW,2013-04-08 21:16:00,
2013-04-08 16:21:00,44.9,39.8,29.61,NNE,23,0.0,0.8,82,0.00,,,0.26,WUHU216HW,2013-04-08 21:21:00,
2013-04-08 16:26:00,44.9,39.8,29.62,NE,45,0.0,1.3,82,0.00,,,0.26,WUHU216HW,2013-04-08 21:26:00,
2013-04-08 16:31:00,45.1,39.9,29.62,NNE,23,0.0,1.3,82,0.00,,,0.26,WUHU216HW,2013-04-08 21:31:00,
2013-04-08 16:37:00,45.1,39.6,29.62,NE,45,0.0,0.0,81,0.00,,,0.26,WUHU216HW,2013-04-08 21:37:00,
2013-04-08 16:42:00,46.0,40.5,29.62,North,0,2.4,3.5,81,0.00,,,0.26,WUHU216HW,2013-04-08 21:42:00,
2013-04-08 16:47:00,46.0,40.2,29.63,NW,315,0.0,3.5,80,0.00,,,0.26,WUHU216HW,2013-04-08 21:47:00,
2013-04-08 16:52:00,45.6,39.9,29.64,NNE,23,0.0,2.2,80,0.00,,,0.26,WUHU216HW,2013-04-08 21:52:00,
2013-04-08 16:57:00,45.3,39.5,29.64,NNE,23,0.0,0.0,80,0.00,,,0.26,WUHU216HW,2013-04-08 21:57:00,
2013-04-08 17:02:00,44.7,39.0,29.64,NNE,23,0.0,0.0,80,0.00,,,0.26,WUHU216HW,2013-04-08 22:02:00,
2013-04-08 17:07:00,44.4,38.6,29.64,NE,45,0.0,0.0,80,0.00,,,0.26,WUHU216HW,2013-04-08 22:07:00,
2013-04-08 17:12:00,44.0,38.6,29.65,North,0,0.0,0.0,81,0.00,,,0.26,WUHU216HW,2013-04-08 22:12:00,
2013-04-08 17:17:00,43.8,38.7,29.65,NNE,23,0.0,0.0,81,0.00,,,0.26,WUHU216HW,2013-04-08 22:17:00,
2013-04-08 17:22:00,43.7,38.5,29.65,North,0,0.0,0.0,82,0.00,,,0.26,WUHU216HW,2013-04-08 22:22:00,
2013-04-08 17:27:00,43.5,38.3,29.66,NE,45,0.0,0.0,82,0.00,,,0.26,WUHU216HW,2013-04-08 22:27:00,
2013-04-08 17:32:00,43.3,38.1,29.66,NNE,23,0.0,0.0,82,0.00,,,0.26,WUHU216HW,2013-04-08 22:32:00,
2013-04-08 17:37:00,43.1,38.0,29.67,NE,45,0.0,0.0,82,0.00,,,0.26,WUHU216HW,2013-04-08 22:37:00,
2013-04-08 17:43:00,42.9,38.1,29.67,NNE,23,0.0,0.0,83,0.00,,,0.26,WUHU216HW,2013-04-08 22:43:00,
2013-04-08 17:48:00,42.9,38.1,29.67,NE,45,0.0,0.0,83,0.00,,,0.26,WUHU216HW,2013-04-08 22:48:00,
2013-04-08 17:53:00,42.8,38.1,29.67,North,0,0.0,0.0,83,0.00,,,0.26,WUHU216HW,2013-04-08 22:53:00,
2013-04-08 17:58:00,42.6,37.7,29.68,North,0,0.0,0.0,83,0.00,,,0.26,WUHU216HW,2013-04-08 22:58:00,
2013-04-08 18:03:00,42.6,38.0,29.67,NE,45,2.2,2.2,84,0.00,,,0.26,WUHU216HW,2013-04-08 23:03:00,
2013-04-08 18:08:00,42.4,37.9,29.67,ENE,68,0.0,2.2,84,0.00,,,0.26,WUHU216HW,2013-04-08 23:08:00,
2013-04-08 18:13:00,42.4,37.9,29.67,NE,45,0.0,0.0,84,0.00,,,0.26,WUHU216HW,2013-04-08 23:13:00,
2013-04-08 18:18:00,42.2,37.9,29.67,NE,45,0.0,0.0,84,0.00,,,0.26,WUHU216HW,2013-04-08 23:18:00,
2013-04-08 18:23:00,42.0,37.5,29.67,ENE,68,0.0,0.0,84,0.00,,,0.26,WUHU216HW,2013-04-08 23:23:00,
2013-04-08 18:28:00,41.9,37.3,29.68,NE,45,0.0,0.0,84,0.00,,,0.26,WUHU216HW,2013-04-08 23:28:00,
2013-04-08 18:34:00,41.7,37.1,29.68,NE,45,0.0,1.3,84,0.00,,,0.26,WUHU216HW,2013-04-08 23:34:00,
2013-04-08 18:39:00,41.5,37.0,29.68,North,0,0.0,1.3,84,0.00,,,0.26,WUHU216HW,2013-04-08 23:39:00,
2013-04-08 18:44:00,41.5,37.3,29.69,NNE,23,0.0,0.0,85,0.00,,,0.26,WUHU216HW,2013-04-08 23:44:00,
2013-04-08 18:49:00,41.3,37.1,29.69,NNE,23,0.0,0.0,85,0.00,,,0.26,WUHU216HW,2013-04-08 23:49:00,
2013-04-08 18:54:00,41.3,37.1,29.69,NE,45,0.0,0.8,85,0.00,,,0.26,WUHU216HW,2013-04-08 23:54:00,
2013-04-08 18:59:00,41.1,37.4,29.69,East,90,1.5,1.5,86,0.00,,,0.26,WUHU216HW,2013-04-08 23:59:00,
2013-04-08 19:04:00,41.1,37.2,29.69,ENE,68,0.0,1.5,86,0.00,,,0.26,WUHU216HW,2013-04-09 00:04:00,
2013-04-08 19:09:00,40.8,36.8,29.70,NE,45,0.0,0.0,86,0.00,,,0.26,WUHU216HW,2013-04-09 00:09:00,
2013-04-08 19:14:00,40.8,36.8,29.70,NNE,23,0.0,0.0,86,0.00,,,0.26,WUHU216HW,2013-04-09 00:14:00,
2013-04-08 19:19:00,40.6,36.7,29.70,ENE,68,0.0,0.0,86,0.00,,,0.26,WUHU216HW,2013-04-09 00:19:00,
2013-04-08 19:25:00,40.4,36.5,29.71,NE,45,0.0,0.0,86,0.00,,,0.26,WUHU216HW,2013-04-09 00:25:00,
2013-04-08 19:30:00,40.2,36.6,29.72,NE,45,0.0,0.0,87,0.00,,,0.26,WUHU216HW,2013-04-09 00:30:00,
2013-04-08 19:35:00,40.1,36.5,29.72,NE,45,0.0,0.0,87,0.00,,,0.26,WUHU216HW,2013-04-09 00:35:00,
2013-04-08 19:40:00,40.1,36.5,29.71,NE,45,2.2,2.2,87,0.00,,,0.26,WUHU216HW,2013-04-09 00:40:00,
2013-04-08 19:45:00,40.1,36.5,29.72,NE,45,0.0,2.2,87,0.00,,,0.26,WUHU216HW,2013-04-09 00:45:00,
2013-04-08 19:50:00,39.9,36.3,29.72,NE,45,0.0,0.0,87,0.00,,,0.26,WUHU216HW,2013-04-09 00:50:00,
2013-04-08 19:55:00,39.9,36.6,29.73,ENE,68,0.0,0.0,88,0.00,,,0.26,WUHU216HW,2013-04-09 00:55:00,
2013-04-08 20:00:00,39.9,36.6,29.73,NE,45,0.0,0.0,88,0.00,,,0.26,WUHU216HW,2013-04-09 01:00:00,
2013-04-08 20:05:00,39.7,36.4,29.73,ENE,68,0.0,0.0,88,0.00,,,0.26,WUHU216HW,2013-04-09 01:05:00,
2013-04-08 20:10:00,39.7,36.4,29.74,NE,45,0.0,0.0,88,0.00,,,0.26,WUHU216HW,2013-04-09 01:10:00,
2013-04-08 20:15:00,39.5,36.2,29.74,NE,45,0.0,0.0,88,0.00,,,0.26,WUHU216HW,2013-04-09 01:15:00,
2013-04-08 20:20:00,39.3,36.0,29.74,NNE,23,0.0,0.0,88,0.00,,,0.26,WUHU216HW,2013-04-09 01:20:00,
2013-04-08 20:25:00,39.3,36.0,29.75,NNE,23,0.0,0.0,88,0.00,,,0.26,WUHU216HW,2013-04-09 01:25:00,
2013-04-08 20:30:00,39.0,35.7,29.75,NNE,23,0.0,0.0,88,0.00,,,0.26,WUHU216HW,2013-04-09 01:30:00,
2013-04-08 20:35:00,39.0,35.7,29.75,North,0,0.0,0.0,88,0.00,,,0.26,WUHU216HW,2013-04-09 01:35:00,
2013-04-08 20:41:00,38.8,35.5,29.76,NE,45,0.0,1.5,88,0.00,,,0.26,WUHU216HW,2013-04-09 01:41:00,
2013-04-08 20:46:00,38.4,35.2,29.75,NNE,23,0.0,0.0,88,0.00,,,0.26,WUHU216HW,2013-04-09 01:46:00,
2013-04-08 20:51:00,38.3,35.0,29.75,NE,45,0.0,0.0,88,0.00,,,0.26,WUHU216HW,2013-04-09 01:51:00,
2013-04-08 20:56:00,38.1,34.8,29.75,North,0,0.0,0.0,88,0.00,,,0.26,WUHU216HW,2013-04-09 01:56:00,
2013-04-08 21:01:00,37.9,34.6,29.75,NE,45,0.0,1.1,88,0.00,,,0.26,WUHU216HW,2013-04-09 02:01:00,
2013-04-08 21:07:00,37.9,35.1,29.76,NNE,23,0.0,1.1,89,0.00,,,0.26,WUHU216HW,2013-04-09 02:07:00,
2013-04-08 21:12:00,38.1,35.1,29.77,ENE,68,0.0,0.0,89,0.00,,,0.26,WUHU216HW,2013-04-09 02:12:00,
2013-04-08 21:17:00,38.1,35.1,29.77,NE,45,0.0,0.0,89,0.00,,,0.26,WUHU216HW,2013-04-09 02:17:00,
2013-04-08 21:22:00,38.1,35.1,29.77,NE,45,0.0,0.0,89,0.00,,,0.26,WUHU216HW,2013-04-09 02:22:00,
2013-04-08 21:27:00,38.3,35.3,29.78,NNE,23,0.0,0.0,89,0.00,,,0.26,WUHU216HW,2013-04-09 02:27:00,
2013-04-08 21:32:00,38.3,35.3,29.79,NE,45,0.0,0.0,89,0.00,,,0.26,WUHU216HW,2013-04-09 02:32:00,
2013-04-08 21:37:00,38.3,35.3,29.79,NNE,23,0.0,0.0,89,0.00,,,0.26,WUHU216HW,2013-04-09 02:37:00,
2013-04-08 21:42:00,38.3,35.3,29.78,ENE,68,0.0,0.0,89,0.00,,,0.26,WUHU216HW,2013-04-09 02:42:00,
2013-04-08 21:47:00,38.3,35.3,29.79,NE,45,0.0,0.0,89,0.00,,,0.26,WUHU216HW,2013-04-09 02:47:00,
2013-04-08 21:52:00,38.3,35.6,29.79,NE,45,0.0,0.0,90,0.00,,,0.26,WUHU216HW,2013-04-09 02:52:00,
2013-04-08 21:57:00,38.3,35.6,29.79,ENE,68,0.0,0.0,90,0.00,,,0.26,WUHU216HW,2013-04-09 02:57:00,
2013-04-08 22:02:00,38.3,35.6,29.79,NNE,23,0.0,0.0,90,0.00,,,0.26,WUHU216HW,2013-04-09 03:02:00,
2013-04-08 22:07:00,38.3,35.6,29.79,NE,45,0.0,0.0,90,0.00,,,0.26,WUHU216HW,2013-04-09 03:07:00,
2013-04-08 22:12:00,38.1,35.4,29.79,NNE,23,0.0,0.0,90,0.00,,,0.26,WUHU216HW,2013-04-09 03:12:00,
2013-04-08 22:17:00,38.1,35.4,29.79,NNE,23,0.0,0.0,90,0.00,,,0.26,WUHU216HW,2013-04-09 03:17:00,
2013-04-08 22:22:00,37.9,35.2,29.79,NNW,338,0.0,0.0,90,0.00,,,0.26,WUHU216HW,2013-04-09 03:22:00,
2013-04-08 22:27:00,37.9,35.2,29.79,ENE,68,0.0,0.0,90,0.00,,,0.26,WUHU216HW,2013-04-09 03:27:00,
2013-04-08 22:32:00,37.9,35.2,29.79,NE,45,0.0,0.0,90,0.00,,,0.26,WUHU216HW,2013-04-09 03:32:00,
2013-04-08 22:38:00,37.9,35.2,29.80,NE,45,0.0,2.2,90,0.00,,,0.26,WUHU216HW,2013-04-09 03:38:00,
2013-04-08 22:43:00,37.9,35.2,29.80,NNE,23,0.0,2.2,90,0.00,,,0.26,WUHU216HW,2013-04-09 03:43:00,
2013-04-08 22:48:00,37.7,35.0,29.80,North,0,0.0,0.0,90,0.00,,,0.26,WUHU216HW,2013-04-09 03:48:00,
2013-04-08 22:53:00,37.7,35.0,29.81,ENE,68,0.0,1.7,90,0.00,,,0.26,WUHU216HW,2013-04-09 03:53:00,
2013-04-08 22:58:00,37.7,35.3,29.80,North,0,0.0,1.7,91,0.00,,,0.26,WUHU216HW,2013-04-09 03:58:00,
2013-04-08 23:00:00,37.7,35.3,29.80,NE,45,0.0,0.0,91,0.00,,,0.26,WUHU216HW,2013-04-09 04:00:00,
2013-04-08 23:05:00,37.7,35.3,29.81,NNE,23,0.0,0.0,91,0.00,,,0.26,WUHU216HW,2013-04-09 04:05:00,
2013-04-08 23:10:00,37.7,35.1,29.81,NE,45,0.0,0.0,91,0.00,,,0.26,WUHU216HW,2013-04-09 04:10:00,
2013-04-08 23:15:00,37.5,35.1,29.81,NE,45,0.0,2.9,91,0.00,,,0.26,WUHU216HW,2013-04-09 04:15:00,
2013-04-08 23:20:00,37.5,35.1,29.81,NNE,23,0.0,0.0,91,0.00,,,0.26,WUHU216HW,2013-04-09 04:20:00,
2013-04-08 23:25:00,37.5,35.1,29.81,ENE,68,0.0,2.6,91,0.00,,,0.26,WUHU216HW,2013-04-09 04:25:00,
2013-04-08 23:31:00,37.5,35.1,29.81,ENE,68,0.0,2.6,91,0.00,,,0.26,WUHU216HW,2013-04-09 04:31:00,
2013-04-08 23:36:00,37.5,35.1,29.81,ENE,68,0.0,0.0,91,0.00,,,0.26,WUHU216HW,2013-04-09 04:36:00,
2013-04-08 23:41:00,37.5,35.1,29.81,NNE,23,0.0,0.0,91,0.00,,,0.26,WUHU216HW,2013-04-09 04:41:00,
2013-04-08 23:46:00,37.4,35.1,29.82,ENE,68,0.0,0.0,91,0.00,,,0.26,WUHU216HW,2013-04-09 04:46:00,
2013-04-08 23:52:00,37.4,34.9,29.81,NE,45,0.0,0.0,91,0.00,,,0.26,WUHU216HW,2013-04-09 04:52:00,
2013-04-08 23:57:00,37.4,34.9,29.81,NNE,23,0.0,0.0,91,0.00,,,0.26,WUHU216HW,2013-04-09 04:57:00,